createdAt,value
2022-09-15T00:01:31.510Z,7.20
2022-09-15T00:03:59.767Z,5.63
2022-09-15T00:06:28.057Z,4.88
2022-09-15T00:08:56.936Z,5.45
2022-09-15T00:11:29.195Z,7.18
2022-09-15T00:13:59.422Z,6.33
2022-09-15T00:16:31.444Z,5.22
2022-09-15T00:19:00.811Z,6.10
2022-09-15T00:21:34.389Z,6.32
2022-09-15T00:24:02.743Z,8.55
2022-09-15T00:26:31.997Z,5.40
2022-09-15T00:29:01.465Z,6.22
2022-09-15T00:31:31.129Z,4.93
2022-09-15T00:34:03.131Z,4.60
2022-09-15T00:36:32.680Z,5.38
2022-09-15T00:39:00.730Z,5.03
2022-09-15T00:41:29.138Z,4.65
2022-09-15T00:44:03.135Z,4.75
2022-09-15T00:46:31.201Z,5.57
2022-09-15T00:49:17.200Z,7.22
2022-09-15T00:52:07.911Z,5.93
2022-09-15T00:54:41.906Z,7.57
2022-09-15T00:57:20.202Z,5.07
2022-09-15T00:59:50.030Z,6.38
2022-09-15T01:02:31.041Z,7.72
2022-09-15T01:05:00.846Z,6.23
2022-09-15T01:07:37.758Z,5.93
2022-09-15T01:10:15.305Z,6.80
2022-09-15T01:12:43.869Z,6.88
2022-09-15T01:15:11.808Z,5.80
2022-09-15T01:17:59.039Z,7.90
2022-09-15T01:20:52.913Z,6.38
2022-09-15T01:23:47.250Z,7.95
2022-09-15T01:26:15.055Z,8.27
2022-09-15T01:29:28.148Z,9.13
2022-09-15T01:32:17.356Z,7.43
2022-09-15T01:35:03.222Z,8.30
2022-09-15T01:37:39.767Z,5.80
2022-09-15T01:40:10.387Z,5.75
2022-09-15T01:42:39.400Z,10.88
2022-09-15T01:45:20.285Z,6.57
2022-09-15T01:47:52.918Z,6.80
2022-09-15T01:50:31.559Z,9.05
2022-09-15T01:53:04.620Z,5.32
2022-09-15T01:55:43.883Z,4.80
2022-09-15T01:58:12.699Z,8.00
2022-09-15T02:00:46.561Z,5.93
2022-09-15T02:03:34.275Z,6.72
2022-09-15T02:06:09.901Z,5.40
2022-09-15T02:08:57.675Z,6.53
2022-09-15T02:11:28.655Z,5.78
2022-09-15T02:14:17.637Z,5.83
2022-09-15T02:16:50.659Z,7.45
2022-09-15T02:19:32.181Z,7.75
2022-09-15T02:22:28.286Z,5.75
2022-09-15T02:25:08.396Z,8.38
2022-09-15T02:27:48.921Z,7.80
2022-09-15T02:30:20.825Z,9.85
2022-09-15T02:32:56.607Z,5.80
2022-09-15T02:35:26.720Z,6.05
2022-09-15T02:37:57.131Z,8.20
2022-09-15T02:40:25.338Z,6.20
2022-09-15T02:42:56.607Z,7.35
2022-09-15T02:45:27.324Z,6.72
2022-09-15T02:47:55.425Z,7.68
2022-09-15T02:50:23.478Z,5.57
2022-09-15T02:52:51.541Z,7.93
2022-09-15T02:55:19.451Z,7.10
2022-09-15T02:57:47.503Z,6.85
2022-09-15T03:00:20.644Z,7.40
2022-09-15T03:02:52.185Z,7.63
2022-09-15T03:05:23.380Z,6.40
2022-09-15T03:07:52.723Z,8.15
2022-09-15T03:10:22.031Z,8.55
2022-09-15T03:12:51.996Z,7.38
2022-09-15T03:15:23.729Z,8.45
2022-09-15T03:17:52.920Z,6.03
2022-09-15T03:20:23.961Z,7.10
2022-09-15T03:22:52.019Z,7.20
2022-09-15T03:25:20.827Z,8.05
2022-09-15T03:27:48.969Z,6.68
2022-09-15T03:30:17.234Z,9.32
2022-09-15T03:32:46.061Z,5.77
2022-09-15T03:35:14.015Z,7.90
2022-09-15T03:37:43.327Z,7.97
2022-09-15T03:40:11.553Z,9.00
2022-09-15T03:42:39.632Z,6.75
2022-09-15T03:45:07.941Z,6.43
2022-09-15T03:47:36.316Z,5.70
2022-09-15T03:50:04.626Z,9.13
2022-09-15T03:52:32.861Z,9.32
2022-09-15T03:55:00.810Z,6.32
2022-09-15T03:57:28.930Z,8.67
2022-09-15T03:59:57.138Z,6.15
2022-09-15T04:02:25.245Z,6.45
2022-09-15T04:04:53.401Z,8.77
2022-09-15T04:07:21.417Z,7.22
2022-09-15T04:09:49.654Z,8.67
2022-09-15T04:12:17.919Z,6.65
2022-09-15T04:14:46.859Z,7.47
2022-09-15T04:17:16.289Z,6.93
2022-09-15T04:19:44.214Z,8.65
2022-09-15T04:22:16.961Z,8.00
2022-09-15T04:24:48.480Z,7.35
2022-09-15T04:27:18.291Z,12.68
2022-09-15T04:29:46.651Z,10.23
2022-09-15T04:32:14.717Z,9.55
2022-09-15T04:34:42.879Z,11.07
2022-09-15T04:37:12.243Z,11.77
2022-09-15T04:39:40.562Z,9.73
2022-09-15T04:42:08.690Z,10.43
2022-09-15T04:44:36.667Z,8.25
2022-09-15T04:47:05.139Z,10.63
2022-09-15T04:49:33.481Z,9.32
2022-09-15T04:52:01.900Z,8.55
2022-09-15T04:54:30.376Z,10.07
2022-09-15T04:56:58.408Z,11.02
2022-09-15T04:59:29.550Z,13.07
2022-09-15T05:01:57.903Z,11.85
2022-09-15T05:04:26.214Z,12.90
2022-09-15T05:06:54.348Z,13.93
2022-09-15T05:09:22.415Z,12.13
2022-09-15T05:11:50.846Z,12.23
2022-09-15T05:14:18.966Z,11.45
2022-09-15T05:16:47.078Z,12.20
2022-09-15T05:19:15.027Z,16.33
2022-09-15T05:21:43.240Z,16.25
2022-09-15T05:24:11.372Z,17.27
2022-09-15T05:26:39.438Z,14.18
2022-09-15T05:29:08.356Z,14.27
2022-09-15T05:31:36.574Z,14.27
2022-09-15T05:34:06.300Z,17.90
2022-09-15T05:36:35.487Z,13.03
2022-09-15T05:39:03.986Z,14.88
2022-09-15T05:41:32.002Z,11.45
2022-09-15T05:44:00.254Z,10.32
2022-09-15T05:46:29.644Z,14.10
2022-09-15T05:48:58.900Z,11.40
2022-09-15T05:51:28.269Z,10.65
2022-09-15T05:53:56.410Z,7.95
2022-09-15T05:56:24.637Z,13.18
2022-09-15T05:58:53.206Z,11.15
2022-09-15T06:01:30.679Z,9.00
2022-09-15T06:03:59.511Z,15.52
2022-09-15T06:06:27.469Z,15.52
2022-09-15T06:08:58.761Z,11.73
2022-09-15T06:11:31.481Z,14.52
2022-09-15T06:14:04.237Z,15.07
2022-09-15T06:16:34.727Z,12.05
2022-09-15T06:19:03.822Z,17.98
2022-09-15T06:21:33.250Z,19.23
2022-09-15T06:24:04.044Z,21.45
2022-09-15T06:26:32.218Z,18.70
2022-09-15T06:29:03.112Z,14.45
2022-09-15T06:31:33.391Z,10.60
2022-09-15T06:34:02.199Z,11.75
2022-09-15T06:36:32.276Z,9.38
2022-09-15T06:39:00.616Z,13.57
2022-09-15T06:41:52.621Z,12.13
2022-09-15T06:44:20.569Z,10.75
2022-09-15T06:46:52.109Z,14.57
2022-09-15T06:49:22.228Z,11.15
2022-09-15T06:51:50.339Z,10.23
2022-09-15T06:54:18.463Z,12.45
2022-09-15T06:56:48.653Z,12.70
2022-09-15T06:59:17.490Z,13.02
2022-09-15T07:01:45.438Z,10.05
2022-09-15T07:04:13.543Z,13.77
2022-09-15T07:06:41.257Z,12.98
2022-09-15T07:09:11.465Z,15.70
2022-09-15T07:11:39.536Z,12.95
2022-09-15T07:14:07.589Z,13.00
2022-09-15T07:16:35.739Z,18.03
2022-09-15T07:19:06.169Z,17.90
2022-09-15T07:21:34.734Z,14.98
2022-09-15T07:24:07.007Z,20.70
2022-09-15T07:26:36.103Z,13.98
2022-09-15T07:29:06.722Z,30.37
2022-09-15T07:31:36.818Z,18.17
2022-09-15T07:34:05.673Z,10.68
2022-09-15T07:36:38.195Z,9.73
2022-09-15T07:39:06.672Z,17.05
2022-09-15T07:41:39.346Z,11.93
2022-09-15T07:44:08.855Z,14.95
2022-09-15T07:46:36.952Z,9.10
2022-09-15T07:49:08.859Z,10.18
2022-09-15T07:51:36.932Z,17.92
2022-09-15T07:54:05.210Z,14.93
2022-09-15T07:56:33.832Z,11.25
2022-09-15T07:59:01.853Z,12.75
2022-09-15T08:01:29.875Z,17.92
2022-09-15T08:03:58.043Z,16.40
2022-09-15T08:06:29.212Z,11.93
2022-09-15T08:09:00.813Z,11.43
2022-09-15T08:11:29.595Z,12.32
2022-09-15T08:14:03.480Z,11.13
2022-09-15T08:16:32.169Z,11.75
2022-09-15T08:19:01.326Z,11.87
2022-09-15T08:21:29.562Z,15.07
2022-09-15T08:23:59.861Z,14.52
2022-09-15T08:26:32.695Z,15.23
2022-09-15T08:29:01.800Z,13.57
2022-09-15T08:31:29.873Z,14.83
2022-09-15T08:33:58.166Z,8.23
2022-09-15T08:36:28.361Z,11.20
2022-09-15T08:38:57.045Z,12.38
2022-09-15T08:41:27.781Z,7.35
2022-09-15T08:44:02.686Z,7.23
2022-09-15T08:47:05.565Z,8.50
2022-09-15T08:49:55.114Z,9.38
2022-09-15T08:52:35.810Z,8.48
2022-09-15T08:55:16.308Z,6.03
2022-09-15T08:57:45.596Z,6.73
2022-09-15T09:00:17.342Z,6.85
2022-09-15T09:03:05.694Z,4.95
2022-09-15T09:05:52.442Z,5.22
2022-09-15T09:08:51.879Z,6.60
2022-09-15T09:11:26.639Z,6.27
2022-09-15T09:14:24.519Z,5.85
2022-09-15T09:17:22.262Z,4.93
2022-09-15T09:20:09.614Z,11.32
2022-09-15T09:22:42.020Z,5.88
2022-09-15T09:25:26.593Z,7.97
2022-09-15T09:27:58.888Z,5.55
2022-09-15T09:30:30.259Z,5.63
2022-09-15T09:33:18.847Z,5.72
2022-09-15T09:35:50.291Z,5.10
2022-09-15T09:38:25.816Z,6.57
2022-09-15T09:40:56.585Z,4.30
2022-09-15T09:43:30.441Z,8.00
2022-09-15T09:45:59.886Z,3.97
2022-09-15T09:48:29.623Z,4.53
2022-09-15T09:50:57.881Z,4.93
2022-09-15T09:53:31.759Z,3.50
2022-09-15T09:56:26.153Z,4.43
2022-09-15T09:58:55.712Z,4.75
2022-09-15T10:01:26.426Z,2.97
2022-09-15T10:04:19.596Z,6.00
2022-09-15T10:06:48.151Z,5.10
2022-09-15T10:09:19.136Z,8.52
2022-09-15T10:11:52.051Z,5.65
2022-09-15T10:14:27.143Z,2.78
2022-09-15T10:16:59.373Z,4.03
2022-09-15T10:19:30.481Z,3.75
2022-09-15T10:21:59.970Z,3.53
2022-09-15T10:24:27.796Z,8.07
2022-09-15T10:27:35.391Z,3.65
2022-09-15T10:30:15.640Z,3.33
2022-09-15T10:32:43.956Z,2.03
2022-09-15T10:35:15.856Z,5.03
2022-09-15T10:38:00.356Z,5.68
2022-09-15T10:40:38.738Z,3.90
2022-09-15T10:43:47.088Z,3.60
2022-09-15T10:46:42.351Z,6.22
2022-09-15T10:49:45.016Z,4.60
2022-09-15T10:52:41.022Z,4.68
2022-09-15T10:55:48.863Z,5.65
2022-09-15T10:58:45.787Z,3.53
2022-09-15T11:01:55.664Z,5.40
2022-09-15T11:04:38.973Z,4.03
2022-09-15T11:07:25.065Z,2.97
2022-09-15T11:10:25.783Z,3.85
2022-09-15T11:13:05.162Z,4.63
2022-09-15T11:16:00.899Z,5.40
2022-09-15T11:18:44.280Z,3.97
2022-09-15T11:21:23.613Z,3.97
2022-09-15T11:24:23.642Z,3.28
2022-09-15T11:27:17.821Z,2.87
2022-09-15T11:30:02.177Z,5.97
2022-09-15T11:32:55.748Z,5.65
2022-09-15T11:35:46.775Z,5.90
2022-09-15T11:38:23.839Z,7.25
2022-09-15T11:41:13.830Z,3.00
2022-09-15T11:44:16.128Z,4.88
2022-09-15T11:47:05.882Z,4.70
2022-09-15T11:49:47.968Z,6.60
2022-09-15T11:52:46.476Z,8.73
2022-09-15T11:55:38.519Z,7.80
2022-09-15T11:58:29.965Z,4.68
2022-09-15T12:01:02.459Z,4.50
2022-09-15T12:03:38.238Z,4.40
2022-09-15T12:06:32.705Z,14.65
2022-09-15T12:09:03.494Z,7.33
2022-09-15T12:11:36.153Z,4.68
2022-09-15T12:14:06.105Z,6.57
2022-09-15T12:16:35.160Z,5.38
2022-09-15T12:19:33.902Z,6.25
2022-09-15T12:22:11.486Z,5.97
2022-09-15T12:24:46.463Z,6.03
2022-09-15T12:27:18.916Z,7.18
2022-09-15T12:29:58.554Z,5.18
2022-09-15T12:32:30.860Z,8.05
2022-09-15T12:35:10.149Z,7.33
2022-09-15T12:38:02.493Z,6.85
2022-09-15T12:40:42.382Z,9.02
2022-09-15T12:43:13.760Z,9.30
2022-09-15T12:45:44.305Z,7.05
2022-09-15T12:48:19.403Z,4.93
2022-09-15T12:51:21.796Z,6.38
2022-09-15T12:54:05.073Z,6.00
2022-09-15T12:56:34.624Z,7.93
2022-09-15T12:59:07.622Z,6.57
2022-09-15T13:01:56.925Z,5.93
2022-09-15T13:04:53.726Z,5.25
2022-09-15T13:07:34.196Z,7.32
2022-09-15T13:10:14.355Z,8.93
2022-09-15T13:12:50.104Z,5.78
2022-09-15T13:15:19.663Z,5.77
2022-09-15T13:17:48.591Z,6.68
2022-09-15T13:20:23.643Z,6.20
2022-09-15T13:22:56.887Z,10.20
2022-09-15T13:25:30.116Z,6.75
2022-09-15T13:28:02.935Z,8.43
2022-09-15T13:31:10.111Z,7.25
2022-09-15T13:40:53.863Z,5.82
2022-09-15T13:44:18.590Z,4.87
2022-09-15T13:47:20.679Z,6.35
2022-09-15T13:50:07.333Z,8.07
2022-09-15T13:53:11.562Z,7.68
2022-09-15T13:55:44.016Z,5.30
2022-09-15T14:01:06.926Z,8.95
2022-09-15T14:03:43.545Z,5.07
2022-09-15T14:06:27.524Z,6.40
2022-09-15T14:08:59.346Z,4.57
2022-09-15T14:11:34.205Z,3.90
2022-09-15T14:14:03.612Z,6.68
2022-09-15T14:16:35.249Z,4.57
2022-09-15T14:19:25.128Z,7.32
2022-09-15T14:21:58.277Z,7.45
2022-09-15T14:24:32.815Z,8.80
2022-09-15T14:27:09.444Z,6.93
2022-09-15T14:29:42.440Z,7.20
2022-09-15T14:32:16.615Z,6.95
2022-09-15T14:34:45.800Z,4.53
2022-09-15T14:37:24.347Z,6.13
2022-09-15T14:39:56.859Z,5.63
2022-09-15T14:42:51.322Z,5.65
2022-09-15T14:48:18.559Z,5.35
2022-09-15T14:50:57.314Z,6.00
2022-09-15T14:53:27.429Z,6.18
2022-09-15T14:56:03.162Z,7.93
2022-09-15T14:58:43.675Z,6.88
2022-09-15T15:01:23.660Z,8.65
2022-09-15T15:04:23.289Z,6.67
2022-09-15T15:06:55.655Z,8.07
2022-09-15T15:09:33.342Z,5.65
2022-09-15T15:12:24.214Z,6.63
2022-09-15T15:14:56.704Z,6.07
2022-09-15T15:17:48.388Z,6.60
2022-09-15T15:20:23.464Z,5.32
2022-09-15T15:23:28.610Z,10.60
2022-09-15T15:26:36.331Z,6.53
2022-09-15T15:29:07.774Z,7.32
2022-09-15T15:31:41.009Z,7.83
2022-09-15T15:34:28.378Z,4.60
2022-09-15T15:37:20.644Z,4.60
2022-09-15T15:39:48.913Z,6.80
2022-09-15T15:42:17.552Z,7.07
2022-09-15T15:45:19.996Z,5.17
2022-09-15T15:47:48.820Z,5.22
2022-09-15T15:50:24.426Z,5.10
2022-09-15T15:52:53.503Z,8.05
2022-09-15T15:55:23.877Z,5.95
2022-09-15T15:57:54.745Z,9.30
2022-09-15T16:00:25.814Z,5.63
2022-09-15T16:02:54.462Z,7.47
2022-09-15T16:05:26.229Z,5.78
2022-09-15T16:07:56.557Z,7.85
2022-09-15T16:10:28.804Z,11.77
2022-09-15T16:12:57.106Z,8.73
2022-09-15T16:15:25.136Z,9.68
2022-09-15T16:17:53.269Z,5.30
2022-09-15T16:20:22.143Z,8.02
2022-09-15T16:22:50.391Z,6.83
2022-09-15T16:25:41.260Z,5.35
2022-09-15T16:28:09.401Z,5.63
2022-09-15T16:30:37.441Z,9.65
2022-09-15T16:33:05.892Z,4.93
2022-09-15T16:36:09.570Z,9.67
2022-09-15T16:38:37.887Z,6.95
2022-09-15T16:41:26.395Z,7.43
2022-09-15T16:43:56.399Z,11.88
2022-09-15T16:46:24.699Z,8.98
2022-09-15T16:48:52.793Z,9.23
2022-09-15T16:51:29.924Z,7.75
2022-09-15T16:53:59.791Z,7.38
2022-09-15T16:56:28.514Z,10.45
2022-09-15T16:59:00.503Z,8.93
2022-09-15T17:01:29.118Z,11.80
2022-09-15T17:03:57.143Z,6.18
2022-09-15T17:06:25.603Z,6.57
2022-09-15T17:08:54.041Z,10.07
2022-09-15T17:11:25.664Z,7.90
2022-09-15T17:13:53.995Z,8.70
2022-09-15T17:16:22.342Z,7.22
2022-09-15T17:18:50.798Z,9.38
2022-09-15T17:21:20.273Z,5.05
2022-09-15T17:23:50.477Z,10.85
2022-09-15T17:26:21.910Z,9.50
2022-09-15T17:28:49.980Z,8.15
2022-09-15T17:31:23.542Z,7.60
2022-09-15T17:33:52.462Z,8.18
2022-09-15T17:36:20.959Z,6.22
2022-09-15T17:38:49.336Z,7.03
2022-09-15T17:41:19.855Z,6.32
2022-09-15T17:43:51.273Z,7.20
2022-09-15T17:46:19.440Z,8.40
2022-09-15T17:48:47.453Z,7.40
2022-09-15T17:51:20.537Z,6.83
2022-09-15T17:53:48.573Z,6.20
2022-09-15T17:56:17.601Z,8.73
2022-09-15T17:58:46.700Z,9.55
2022-09-15T18:01:16.455Z,7.43
2022-09-15T18:03:47.390Z,7.83
2022-09-15T18:06:15.641Z,5.72
2022-09-15T18:08:43.732Z,5.05
2022-09-15T18:11:14.892Z,7.22
2022-09-15T18:13:43.429Z,8.15
2022-09-15T18:16:14.768Z,8.40
2022-09-15T18:18:43.423Z,8.20
2022-09-15T18:21:25.500Z,9.88
2022-09-15T18:23:54.317Z,7.72
2022-09-15T18:26:26.278Z,8.88
2022-09-15T18:28:55.462Z,6.43
2022-09-15T18:31:23.911Z,8.00
2022-09-15T18:33:53.733Z,5.75
2022-09-15T18:36:22.521Z,6.20
2022-09-15T18:38:50.357Z,6.32
2022-09-15T18:41:19.152Z,8.23
2022-09-15T18:43:50.054Z,6.57
2022-09-15T18:46:18.770Z,6.90
2022-09-15T18:48:46.888Z,7.97
2022-09-15T18:51:24.066Z,8.15
2022-09-15T18:53:54.499Z,7.55
2022-09-15T18:56:22.860Z,10.43
2022-09-15T18:58:54.402Z,6.20
2022-09-15T19:01:23.313Z,5.57
2022-09-15T19:03:51.479Z,8.05
2022-09-15T19:06:19.638Z,8.02
2022-09-15T19:08:47.570Z,8.45
2022-09-15T19:11:15.849Z,10.03
2022-09-15T19:13:44.008Z,8.23
2022-09-15T19:16:12.310Z,7.38
2022-09-15T19:18:40.516Z,7.55
2022-09-15T19:21:14.080Z,7.95
2022-09-15T19:23:42.812Z,7.40
2022-09-15T19:26:17.596Z,7.50
2022-09-15T19:28:45.799Z,8.65
2022-09-15T19:31:14.848Z,7.75
2022-09-15T19:33:43.969Z,9.77
2022-09-15T19:36:27.304Z,8.53
2022-09-15T19:39:03.035Z,7.78
2022-09-15T19:41:31.626Z,12.02
2022-09-15T19:44:02.754Z,7.70
2022-09-15T19:46:31.738Z,10.25
2022-09-15T19:49:03.363Z,6.13
2022-09-15T19:51:32.075Z,7.07
2022-09-15T19:54:00.702Z,8.60
2022-09-15T19:56:30.030Z,6.03
2022-09-15T19:59:00.027Z,7.28
2022-09-15T20:01:29.930Z,6.45
2022-09-15T20:04:02.779Z,8.87
2022-09-15T20:06:34.003Z,5.40
2022-09-15T20:09:03.623Z,7.32
2022-09-15T20:11:32.422Z,7.53
2022-09-15T20:14:03.908Z,8.93
2022-09-15T20:16:32.606Z,8.43
2022-09-15T20:19:02.584Z,5.95
2022-09-15T20:21:51.337Z,6.82
2022-09-15T20:24:21.519Z,7.90
2022-09-15T20:26:50.234Z,6.18
2022-09-15T20:29:19.045Z,7.10
2022-09-15T20:31:50.202Z,8.95
2022-09-15T20:34:21.574Z,8.90
2022-09-15T20:36:50.459Z,5.50
2022-09-15T20:39:22.453Z,8.93
2022-09-15T20:41:50.765Z,6.87
2022-09-15T20:44:18.755Z,7.10
2022-09-15T20:46:46.978Z,7.45
2022-09-15T20:49:14.973Z,5.85
2022-09-15T20:51:43.183Z,6.18
2022-09-15T20:54:11.760Z,7.20
2022-09-15T20:56:42.357Z,6.05
2022-09-15T20:59:14.639Z,7.22
2022-09-15T21:01:45.399Z,6.70
2022-09-15T21:04:13.847Z,5.05
2022-09-15T21:06:42.066Z,5.97
2022-09-15T21:09:10.525Z,7.30
2022-09-15T21:11:39.994Z,7.32
2022-09-15T21:14:08.149Z,7.32
2022-09-15T21:16:36.303Z,6.30
2022-09-15T21:19:04.734Z,6.00
2022-09-15T21:21:34.522Z,8.05
2022-09-15T21:24:08.075Z,7.72
2022-09-15T21:26:59.681Z,8.10
2022-09-15T21:29:28.967Z,5.72
2022-09-15T21:31:57.064Z,6.90
2022-09-15T21:34:25.432Z,6.95
2022-09-15T21:36:54.138Z,8.15
2022-09-15T21:39:22.391Z,7.78
2022-09-15T21:41:50.538Z,9.57
2022-09-15T21:44:19.279Z,8.67
2022-09-15T21:46:47.962Z,12.13
2022-09-15T21:49:18.426Z,9.55
2022-09-15T21:51:46.881Z,9.70
2022-09-15T21:54:15.265Z,8.07
2022-09-15T21:56:45.832Z,10.30
2022-09-15T21:59:14.727Z,11.30
2022-09-15T22:01:42.728Z,8.20
2022-09-15T22:04:11.054Z,7.68
2022-09-15T22:06:41.283Z,7.88
2022-09-15T22:09:13.598Z,10.17
2022-09-15T22:11:42.319Z,11.53
2022-09-15T22:14:10.785Z,9.82
2022-09-15T22:16:40.730Z,7.28
2022-09-15T22:19:10.545Z,9.40
2022-09-15T22:21:42.227Z,12.32
2022-09-15T22:24:13.250Z,10.23
2022-09-15T22:26:42.932Z,10.20
2022-09-15T22:29:14.441Z,9.65
2022-09-15T22:31:42.711Z,8.95
2022-09-15T22:34:12.002Z,9.93
2022-09-15T22:36:40.735Z,9.77
2022-09-15T22:39:09.075Z,11.37
2022-09-15T22:41:39.092Z,8.68
2022-09-15T22:44:18.029Z,11.02
2022-09-15T22:46:46.750Z,10.90
2022-09-15T22:49:14.776Z,10.27
2022-09-15T22:51:43.446Z,10.30
2022-09-15T22:54:11.540Z,11.40
2022-09-15T22:56:39.566Z,8.77
2022-09-15T22:59:07.775Z,7.85
2022-09-15T23:01:36.845Z,8.93
2022-09-15T23:04:04.807Z,9.07
2022-09-15T23:06:34.505Z,8.32
2022-09-15T23:09:05.825Z,9.88
2022-09-15T23:11:34.393Z,9.15
2022-09-15T23:14:03.087Z,8.32
2022-09-15T23:16:31.556Z,9.33
2022-09-15T23:19:00.561Z,10.23
2022-09-15T23:21:28.894Z,8.90
2022-09-15T23:23:57.194Z,8.00
2022-09-15T23:26:26.262Z,9.85
2022-09-15T23:28:54.784Z,7.13
2022-09-15T23:31:23.369Z,11.13
2022-09-15T23:33:56.001Z,8.38
2022-09-15T23:36:24.067Z,9.55
2022-09-15T23:38:52.030Z,9.70
2022-09-15T23:41:20.380Z,10.67
2022-09-15T23:43:48.403Z,10.38
2022-09-15T23:46:17.826Z,11.07
2022-09-15T23:48:46.012Z,7.20
2022-09-15T23:51:14.277Z,7.47
2022-09-15T23:53:42.351Z,10.10
2022-09-15T23:56:11.002Z,9.32
2022-09-15T23:58:39.527Z,10.30
